sensor_id;sensor_type;location;lat;lon;timestamp;temperature;humidity
65374;SHT31;52070;53.760;9.678;2023-04-15T00:02:16;7.46;86.53
65374;SHT31;52070;53.760;9.678;2023-04-15T00:04:44;7.44;86.59
65374;SHT31;52070;53.760;9.678;2023-04-15T00:07:11;7.52;86.82
65374;SHT31;52070;53.760;9.678;2023-04-15T00:09:41;7.48;86.70
65374;SHT31;52070;53.760;9.678;2023-04-15T00:12:10;7.50;86.87
65374;SHT31;52070;53.760;9.678;2023-04-15T00:14:37;7.41;86.99
65374;SHT31;52070;53.760;9.678;2023-04-15T00:17:04;7.43;87.12
65374;SHT31;52070;53.760;9.678;2023-04-15T00:19:31;7.41;87.21
65374;SHT31;52070;53.760;9.678;2023-04-15T00:21:58;7.44;87.28
65374;SHT31;52070;53.760;9.678;2023-04-15T00:24:26;7.41;87.35
65374;SHT31;52070;53.760;9.678;2023-04-15T00:26:54;7.41;87.54
65374;SHT31;52070;53.760;9.678;2023-04-15T00:29:21;7.40;87.63
65374;SHT31;52070;53.760;9.678;2023-04-15T00:31:48;7.40;87.79
65374;SHT31;52070;53.760;9.678;2023-04-15T00:34:15;7.41;87.93
65374;SHT31;52070;53.760;9.678;2023-04-15T00:36:42;7.43;88.06
65374;SHT31;52070;53.760;9.678;2023-04-15T00:39:09;7.46;88.15
65374;SHT31;52070;53.760;9.678;2023-04-15T00:41:36;7.44;88.23
65374;SHT31;52070;53.760;9.678;2023-04-15T00:44:06;7.43;88.30
65374;SHT31;52070;53.760;9.678;2023-04-15T00:46:34;7.46;88.53
65374;SHT31;52070;53.760;9.678;2023-04-15T00:49:03;7.43;88.56
65374;SHT31;52070;53.760;9.678;2023-04-15T00:51:31;7.43;88.69
65374;SHT31;52070;53.760;9.678;2023-04-15T00:54:01;7.43;88.90
65374;SHT31;52070;53.760;9.678;2023-04-15T00:56:29;7.47;89.00
65374;SHT31;52070;53.760;9.678;2023-04-15T00:58:56;7.44;89.13
65374;SHT31;52070;53.760;9.678;2023-04-15T01:01:25;7.43;89.17
65374;SHT31;52070;53.760;9.678;2023-04-15T01:03:55;7.48;89.26
65374;SHT31;52070;53.760;9.678;2023-04-15T01:06:22;7.47;89.35
65374;SHT31;52070;53.760;9.678;2023-04-15T01:08:49;7.44;89.39
65374;SHT31;52070;53.760;9.678;2023-04-15T01:11:16;7.46;89.50
65374;SHT31;52070;53.760;9.678;2023-04-15T01:13:43;7.44;89.67
65374;SHT31;52070;53.760;9.678;2023-04-15T01:16:10;7.46;89.79
65374;SHT31;52070;53.760;9.678;2023-04-15T01:18:39;7.46;89.92
65374;SHT31;52070;53.760;9.678;2023-04-15T01:21:06;7.48;89.97
65374;SHT31;52070;53.760;9.678;2023-04-15T01:23:35;7.46;90.04
65374;SHT31;52070;53.760;9.678;2023-04-15T01:26:05;7.47;90.06
65374;SHT31;52070;53.760;9.678;2023-04-15T01:28:33;7.44;90.12
65374;SHT31;52070;53.760;9.678;2023-04-15T01:31:08;7.47;90.19
65374;SHT31;52070;53.760;9.678;2023-04-15T01:33:35;7.46;90.25
65374;SHT31;52070;53.760;9.678;2023-04-15T01:36:03;7.43;90.31
65374;SHT31;52070;53.760;9.678;2023-04-15T01:38:31;7.51;90.42
65374;SHT31;52070;53.760;9.678;2023-04-15T01:40:58;7.51;90.52
65374;SHT31;52070;53.760;9.678;2023-04-15T01:43:26;7.46;90.54
65374;SHT31;52070;53.760;9.678;2023-04-15T01:45:53;7.46;90.64
65374;SHT31;52070;53.760;9.678;2023-04-15T01:48:21;7.48;90.71
65374;SHT31;52070;53.760;9.678;2023-04-15T01:50:48;7.44;90.79
65374;SHT31;52070;53.760;9.678;2023-04-15T01:53:16;7.40;90.88
65374;SHT31;52070;53.760;9.678;2023-04-15T01:55:43;7.43;91.03
65374;SHT31;52070;53.760;9.678;2023-04-15T01:58:10;7.47;91.12
65374;SHT31;52070;53.760;9.678;2023-04-15T02:00:38;7.46;91.20
65374;SHT31;52070;53.760;9.678;2023-04-15T02:03:05;7.47;91.26
65374;SHT31;52070;53.760;9.678;2023-04-15T02:05:32;7.44;91.33
65374;SHT31;52070;53.760;9.678;2023-04-15T02:07:59;7.37;91.38
65374;SHT31;52070;53.760;9.678;2023-04-15T02:10:26;7.40;91.50
65374;SHT31;52070;53.760;9.678;2023-04-15T02:12:53;7.41;91.57
65374;SHT31;52070;53.760;9.678;2023-04-15T02:15:20;7.41;91.64
65374;SHT31;52070;53.760;9.678;2023-04-15T02:17:48;7.41;91.67
65374;SHT31;52070;53.760;9.678;2023-04-15T02:20:18;7.41;91.75
65374;SHT31;52070;53.760;9.678;2023-04-15T02:22:45;7.41;91.82
65374;SHT31;52070;53.760;9.678;2023-04-15T02:25:13;7.41;91.85
65374;SHT31;52070;53.760;9.678;2023-04-15T02:27:41;7.40;91.84
65374;SHT31;52070;53.760;9.678;2023-04-15T02:30:09;7.44;91.89
65374;SHT31;52070;53.760;9.678;2023-04-15T02:32:36;7.43;91.97
65374;SHT31;52070;53.760;9.678;2023-04-15T02:35:06;7.40;92.01
65374;SHT31;52070;53.760;9.678;2023-04-15T02:37:35;7.38;92.05
65374;SHT31;52070;53.760;9.678;2023-04-15T02:40:07;7.43;92.11
65374;SHT31;52070;53.760;9.678;2023-04-15T02:42:35;7.40;92.17
65374;SHT31;52070;53.760;9.678;2023-04-15T02:45:02;7.41;92.22
65374;SHT31;52070;53.760;9.678;2023-04-15T02:47:28;7.46;92.25
65374;SHT31;52070;53.760;9.678;2023-04-15T02:49:55;7.41;92.27
65374;SHT31;52070;53.760;9.678;2023-04-15T02:52:26;7.41;92.33
65374;SHT31;52070;53.760;9.678;2023-04-15T02:54:53;7.43;92.37
65374;SHT31;52070;53.760;9.678;2023-04-15T02:57:22;7.46;92.46
65374;SHT31;52070;53.760;9.678;2023-04-15T02:59:49;7.46;92.56
65374;SHT31;52070;53.760;9.678;2023-04-15T03:02:16;7.43;92.50
65374;SHT31;52070;53.760;9.678;2023-04-15T03:04:43;7.48;92.53
65374;SHT31;52070;53.760;9.678;2023-04-15T03:07:10;7.50;92.54
65374;SHT31;52070;53.760;9.678;2023-04-15T03:09:39;7.54;92.56
65374;SHT31;52070;53.760;9.678;2023-04-15T03:12:06;7.48;92.53
65374;SHT31;52070;53.760;9.678;2023-04-15T03:14:32;7.47;92.55
65374;SHT31;52070;53.760;9.678;2023-04-15T03:17:01;7.52;92.64
65374;SHT31;52070;53.760;9.678;2023-04-15T03:19:28;7.55;92.69
65374;SHT31;52070;53.760;9.678;2023-04-15T03:21:55;7.51;92.70
65374;SHT31;52070;53.760;9.678;2023-04-15T03:24:22;7.52;92.75
65374;SHT31;52070;53.760;9.678;2023-04-15T03:26:50;7.50;92.77
65374;SHT31;52070;53.760;9.678;2023-04-15T03:29:17;7.54;92.82
65374;SHT31;52070;53.760;9.678;2023-04-15T03:31:44;7.51;92.88
65374;SHT31;52070;53.760;9.678;2023-04-15T03:34:11;7.54;92.94
65374;SHT31;52070;53.760;9.678;2023-04-15T03:36:38;7.54;93.00
65374;SHT31;52070;53.760;9.678;2023-04-15T03:39:05;7.51;92.97
65374;SHT31;52070;53.760;9.678;2023-04-15T03:41:32;7.58;92.98
65374;SHT31;52070;53.760;9.678;2023-04-15T03:44:01;7.57;93.09
65374;SHT31;52070;53.760;9.678;2023-04-15T03:46:27;7.57;93.07
65374;SHT31;52070;53.760;9.678;2023-04-15T03:48:54;7.60;93.09
65374;SHT31;52070;53.760;9.678;2023-04-15T03:51:21;7.55;93.13
65374;SHT31;52070;53.760;9.678;2023-04-15T03:53:48;7.54;93.22
65374;SHT31;52070;53.760;9.678;2023-04-15T03:56:15;7.64;93.28
65374;SHT31;52070;53.760;9.678;2023-04-15T03:58:42;7.61;93.28
65374;SHT31;52070;53.760;9.678;2023-04-15T04:01:11;7.65;93.30
65374;SHT31;52070;53.760;9.678;2023-04-15T04:03:38;7.64;93.36
65374;SHT31;52070;53.760;9.678;2023-04-15T04:06:05;7.64;93.32
65374;SHT31;52070;53.760;9.678;2023-04-15T04:08:32;7.60;93.37
65374;SHT31;52070;53.760;9.678;2023-04-15T04:10:59;7.64;93.42
65374;SHT31;52070;53.760;9.678;2023-04-15T04:13:26;7.61;93.46
65374;SHT31;52070;53.760;9.678;2023-04-15T04:15:53;7.60;93.50
65374;SHT31;52070;53.760;9.678;2023-04-15T04:18:21;7.62;93.53
65374;SHT31;52070;53.760;9.678;2023-04-15T04:20:48;7.67;93.59
65374;SHT31;52070;53.760;9.678;2023-04-15T04:23:15;7.61;93.64
65374;SHT31;52070;53.760;9.678;2023-04-15T04:25:42;7.62;93.67
65374;SHT31;52070;53.760;9.678;2023-04-15T04:28:09;7.70;93.67
65374;SHT31;52070;53.760;9.678;2023-04-15T04:30:36;7.72;93.74
65374;SHT31;52070;53.760;9.678;2023-04-15T04:33:03;7.70;93.75
65374;SHT31;52070;53.760;9.678;2023-04-15T04:35:32;7.74;93.73
65374;SHT31;52070;53.760;9.678;2023-04-15T04:38:02;7.78;93.73
65374;SHT31;52070;53.760;9.678;2023-04-15T04:40:29;7.78;93.75
65374;SHT31;52070;53.760;9.678;2023-04-15T04:42:56;7.77;93.73
65374;SHT31;52070;53.760;9.678;2023-04-15T04:45:23;7.77;93.69
65374;SHT31;52070;53.760;9.678;2023-04-15T04:47:50;7.75;93.70
65374;SHT31;52070;53.760;9.678;2023-04-15T04:50:17;7.78;93.70
65374;SHT31;52070;53.760;9.678;2023-04-15T04:52:45;7.77;93.75
65374;SHT31;52070;53.760;9.678;2023-04-15T04:55:12;7.77;93.73
65374;SHT31;52070;53.760;9.678;2023-04-15T04:57:39;7.78;93.76
65374;SHT31;52070;53.760;9.678;2023-04-15T05:00:07;7.75;93.82
65374;SHT31;52070;53.760;9.678;2023-04-15T05:02:34;7.79;93.87
65374;SHT31;52070;53.760;9.678;2023-04-15T05:05:01;7.79;93.90
65374;SHT31;52070;53.760;9.678;2023-04-15T05:07:28;7.82;93.92
65374;SHT31;52070;53.760;9.678;2023-04-15T05:09:57;7.89;94.00
65374;SHT31;52070;53.760;9.678;2023-04-15T05:12:24;7.89;94.01
65374;SHT31;52070;53.760;9.678;2023-04-15T05:14:51;7.86;93.96
65374;SHT31;52070;53.760;9.678;2023-04-15T05:17:18;7.91;93.97
65374;SHT31;52070;53.760;9.678;2023-04-15T05:19:45;7.95;93.98
65374;SHT31;52070;53.760;9.678;2023-04-15T05:22:12;7.92;93.96
65374;SHT31;52070;53.760;9.678;2023-04-15T05:24:39;7.93;93.95
65374;SHT31;52070;53.760;9.678;2023-04-15T05:27:07;7.99;93.99
65374;SHT31;52070;53.760;9.678;2023-04-15T05:29:36;7.96;93.98
65374;SHT31;52070;53.760;9.678;2023-04-15T05:32:03;7.99;93.96
65374;SHT31;52070;53.760;9.678;2023-04-15T05:34:30;7.96;94.04
65374;SHT31;52070;53.760;9.678;2023-04-15T05:36:57;7.96;94.08
65374;SHT31;52070;53.760;9.678;2023-04-15T05:39:24;7.99;94.11
65374;SHT31;52070;53.760;9.678;2023-04-15T05:41:51;7.99;94.12
65374;SHT31;52070;53.760;9.678;2023-04-15T05:44:19;8.02;94.21
65374;SHT31;52070;53.760;9.678;2023-04-15T05:46:46;8.01;94.22
65374;SHT31;52070;53.760;9.678;2023-04-15T05:49:13;8.06;94.21
65374;SHT31;52070;53.760;9.678;2023-04-15T05:51:40;8.06;94.24
65374;SHT31;52070;53.760;9.678;2023-04-15T05:54:07;8.10;94.29
65374;SHT31;52070;53.760;9.678;2023-04-15T05:56:34;8.13;94.34
65374;SHT31;52070;53.760;9.678;2023-04-15T05:59:01;8.15;94.35
65374;SHT31;52070;53.760;9.678;2023-04-15T06:01:29;8.16;94.34
65374;SHT31;52070;53.760;9.678;2023-04-15T06:03:56;8.16;94.31
65374;SHT31;52070;53.760;9.678;2023-04-15T06:06:23;8.15;94.34
65374;SHT31;52070;53.760;9.678;2023-04-15T06:08:51;8.17;94.32
65374;SHT31;52070;53.760;9.678;2023-04-15T06:11:20;8.26;94.29
65374;SHT31;52070;53.760;9.678;2023-04-15T06:13:47;8.28;94.31
65374;SHT31;52070;53.760;9.678;2023-04-15T06:16:14;8.29;94.30
65374;SHT31;52070;53.760;9.678;2023-04-15T06:18:43;8.29;94.27
65374;SHT31;52070;53.760;9.678;2023-04-15T06:21:10;8.37;94.28
65374;SHT31;52070;53.760;9.678;2023-04-15T06:23:37;8.36;94.24
65374;SHT31;52070;53.760;9.678;2023-04-15T06:26:05;8.35;94.19
65374;SHT31;52070;53.760;9.678;2023-04-15T06:28:32;8.35;94.16
65374;SHT31;52070;53.760;9.678;2023-04-15T06:30:59;8.36;94.19
65374;SHT31;52070;53.760;9.678;2023-04-15T06:33:27;8.37;94.18
65374;SHT31;52070;53.760;9.678;2023-04-15T06:35:55;8.35;94.17
65374;SHT31;52070;53.760;9.678;2023-04-15T06:38:22;8.39;94.15
65374;SHT31;52070;53.760;9.678;2023-04-15T06:40:49;8.39;94.17
65374;SHT31;52070;53.760;9.678;2023-04-15T06:43:16;8.37;94.12
65374;SHT31;52070;53.760;9.678;2023-04-15T06:45:44;8.39;94.20
65374;SHT31;52070;53.760;9.678;2023-04-15T06:48:11;8.46;94.23
65374;SHT31;52070;53.760;9.678;2023-04-15T06:50:38;8.49;94.27
65374;SHT31;52070;53.760;9.678;2023-04-15T06:53:07;8.46;94.27
65374;SHT31;52070;53.760;9.678;2023-04-15T06:55:34;8.49;94.29
65374;SHT31;52070;53.760;9.678;2023-04-15T06:58:01;8.53;94.26
65374;SHT31;52070;53.760;9.678;2023-04-15T07:00:28;8.53;94.21
65374;SHT31;52070;53.760;9.678;2023-04-15T07:02:55;8.50;94.12
65374;SHT31;52070;53.760;9.678;2023-04-15T07:05:22;8.50;94.07
65374;SHT31;52070;53.760;9.678;2023-04-15T07:07:50;8.49;94.01
65374;SHT31;52070;53.760;9.678;2023-04-15T07:10:19;8.49;94.05
65374;SHT31;52070;53.760;9.678;2023-04-15T07:12:46;8.52;94.02
65374;SHT31;52070;53.760;9.678;2023-04-15T07:15:13;8.53;94.09
65374;SHT31;52070;53.760;9.678;2023-04-15T07:17:41;8.53;94.10
65374;SHT31;52070;53.760;9.678;2023-04-15T07:20:08;8.57;94.15
65374;SHT31;52070;53.760;9.678;2023-04-15T07:22:35;8.54;94.15
65374;SHT31;52070;53.760;9.678;2023-04-15T07:25:03;8.59;94.18
65374;SHT31;52070;53.760;9.678;2023-04-15T07:27:31;8.63;94.15
65374;SHT31;52070;53.760;9.678;2023-04-15T07:29:58;8.64;94.15
65374;SHT31;52070;53.760;9.678;2023-04-15T07:32:25;8.67;94.12
65374;SHT31;52070;53.760;9.678;2023-04-15T07:34:52;8.68;94.10
65374;SHT31;52070;53.760;9.678;2023-04-15T07:37:19;8.68;94.08
65374;SHT31;52070;53.760;9.678;2023-04-15T07:39:46;8.66;94.02
65374;SHT31;52070;53.760;9.678;2023-04-15T07:42:13;8.68;93.99
65374;SHT31;52070;53.760;9.678;2023-04-15T07:44:42;8.73;93.98
65374;SHT31;52070;53.760;9.678;2023-04-15T07:47:09;8.74;93.99
65374;SHT31;52070;53.760;9.678;2023-04-15T07:49:36;8.68;93.87
65374;SHT31;52070;53.760;9.678;2023-04-15T07:52:03;8.74;93.87
65374;SHT31;52070;53.760;9.678;2023-04-15T07:54:30;8.78;93.86
65374;SHT31;52070;53.760;9.678;2023-04-15T07:56:57;8.85;93.84
65374;SHT31;52070;53.760;9.678;2023-04-15T07:59:24;8.87;93.81
65374;SHT31;52070;53.760;9.678;2023-04-15T08:01:53;8.87;93.75
65374;SHT31;52070;53.760;9.678;2023-04-15T08:04:20;8.90;93.58
65374;SHT31;52070;53.760;9.678;2023-04-15T08:06:47;8.94;93.49
65374;SHT31;52070;53.760;9.678;2023-04-15T08:09:15;8.92;93.51
65374;SHT31;52070;53.760;9.678;2023-04-15T08:11:42;9.01;93.52
65374;SHT31;52070;53.760;9.678;2023-04-15T08:14:09;8.96;93.32
65374;SHT31;52070;53.760;9.678;2023-04-15T08:16:36;8.91;93.09
65374;SHT31;52070;53.760;9.678;2023-04-15T08:19:04;8.91;92.91
65374;SHT31;52070;53.760;9.678;2023-04-15T08:21:31;8.90;92.78
65374;SHT31;52070;53.760;9.678;2023-04-15T08:23:58;8.96;92.81
65374;SHT31;52070;53.760;9.678;2023-04-15T08:26:26;8.97;92.77
65374;SHT31;52070;53.760;9.678;2023-04-15T08:28:53;9.05;92.77
65374;SHT31;52070;53.760;9.678;2023-04-15T08:31:20;8.98;92.69
65374;SHT31;52070;53.760;9.678;2023-04-15T08:33:47;8.98;92.61
65374;SHT31;52070;53.760;9.678;2023-04-15T08:36:18;9.00;92.60
65374;SHT31;52070;53.760;9.678;2023-04-15T08:38:45;9.05;92.53
65374;SHT31;52070;53.760;9.678;2023-04-15T08:41:20;9.11;92.44
65374;SHT31;52070;53.760;9.678;2023-04-15T08:43:51;9.15;92.41
65374;SHT31;52070;53.760;9.678;2023-04-15T08:46:20;9.18;92.29
65374;SHT31;52070;53.760;9.678;2023-04-15T08:48:48;9.21;92.17
65374;SHT31;52070;53.760;9.678;2023-04-15T08:51:17;9.15;91.94
65374;SHT31;52070;53.760;9.678;2023-04-15T08:53:44;9.14;91.74
65374;SHT31;52070;53.760;9.678;2023-04-15T08:56:13;9.15;91.79
65374;SHT31;52070;53.760;9.678;2023-04-15T08:58:42;9.20;91.97
65374;SHT31;52070;53.760;9.678;2023-04-15T09:01:11;9.27;92.14
65374;SHT31;52070;53.760;9.678;2023-04-15T09:03:38;9.31;91.98
65374;SHT31;52070;53.760;9.678;2023-04-15T09:06:05;9.34;91.72
65374;SHT31;52070;53.760;9.678;2023-04-15T09:08:34;9.30;91.51
65374;SHT31;52070;53.760;9.678;2023-04-15T09:11:01;9.35;91.61
65374;SHT31;52070;53.760;9.678;2023-04-15T09:13:28;9.41;91.60
65374;SHT31;52070;53.760;9.678;2023-04-15T09:15:55;9.42;91.44
65374;SHT31;52070;53.760;9.678;2023-04-15T09:18:26;9.51;91.48
65374;SHT31;52070;53.760;9.678;2023-04-15T09:20:54;9.52;91.22
65374;SHT31;52070;53.760;9.678;2023-04-15T09:23:21;9.46;91.07
65374;SHT31;52070;53.760;9.678;2023-04-15T09:25:50;9.48;90.92
65374;SHT31;52070;53.760;9.678;2023-04-15T09:28:23;9.52;90.81
65374;SHT31;52070;53.760;9.678;2023-04-15T09:30:51;9.53;90.90
65374;SHT31;52070;53.760;9.678;2023-04-15T09:33:18;9.65;91.03
65374;SHT31;52070;53.760;9.678;2023-04-15T09:35:55;9.72;91.08
65374;SHT31;52070;53.760;9.678;2023-04-15T09:38:22;9.75;90.91
65374;SHT31;52070;53.760;9.678;2023-04-15T09:40:51;9.73;90.40
65374;SHT31;52070;53.760;9.678;2023-04-15T09:43:18;9.78;90.13
65374;SHT31;52070;53.760;9.678;2023-04-15T09:45:50;9.85;90.09
65374;SHT31;52070;53.760;9.678;2023-04-15T09:48:19;9.92;90.07
65374;SHT31;52070;53.760;9.678;2023-04-15T09:50:47;10.02;89.96
65374;SHT31;52070;53.760;9.678;2023-04-15T09:53:16;10.07;89.81
65374;SHT31;52070;53.760;9.678;2023-04-15T09:55:45;10.12;89.76
65374;SHT31;52070;53.760;9.678;2023-04-15T09:58:20;10.23;89.75
65374;SHT31;52070;53.760;9.678;2023-04-15T10:00:49;10.24;89.43
65374;SHT31;52070;53.760;9.678;2023-04-15T10:03:19;10.36;89.26
65374;SHT31;52070;53.760;9.678;2023-04-15T10:05:48;10.57;89.24
65374;SHT31;52070;53.760;9.678;2023-04-15T10:08:17;10.75;88.87
65374;SHT31;52070;53.760;9.678;2023-04-15T10:10:45;10.88;88.22
65374;SHT31;52070;53.760;9.678;2023-04-15T10:13:13;11.01;88.39
65374;SHT31;52070;53.760;9.678;2023-04-15T10:15:47;11.05;87.98
65374;SHT31;52070;53.760;9.678;2023-04-15T10:18:18;11.12;86.78
65374;SHT31;52070;53.760;9.678;2023-04-15T10:20:47;11.19;86.91
65374;SHT31;52070;53.760;9.678;2023-04-15T10:23:14;11.23;86.34
65374;SHT31;52070;53.760;9.678;2023-04-15T10:25:42;11.22;85.72
65374;SHT31;52070;53.760;9.678;2023-04-15T10:28:09;11.42;86.47
65374;SHT31;52070;53.760;9.678;2023-04-15T10:30:37;11.52;86.14
65374;SHT31;52070;53.760;9.678;2023-04-15T10:33:06;11.53;85.77
65374;SHT31;52070;53.760;9.678;2023-04-15T10:35:35;11.62;85.12
65374;SHT31;52070;53.760;9.678;2023-04-15T10:38:30;11.76;84.93
65374;SHT31;52070;53.760;9.678;2023-04-15T10:41:11;12.03;84.53
65374;SHT31;52070;53.760;9.678;2023-04-15T10:43:39;12.17;85.26
65374;SHT31;52070;53.760;9.678;2023-04-15T10:46:06;12.13;84.26
65374;SHT31;52070;53.760;9.678;2023-04-15T10:48:34;12.16;83.96
65374;SHT31;52070;53.760;9.678;2023-04-15T10:51:01;12.31;83.89
65374;SHT31;52070;53.760;9.678;2023-04-15T10:53:30;12.44;84.74
65374;SHT31;52070;53.760;9.678;2023-04-15T10:55:57;12.69;83.70
65374;SHT31;52070;53.760;9.678;2023-04-15T10:58:24;12.69;81.92
65374;SHT31;52070;53.760;9.678;2023-04-15T11:00:52;12.69;81.62
65374;SHT31;52070;53.760;9.678;2023-04-15T11:03:36;12.67;80.93
65374;SHT31;52070;53.760;9.678;2023-04-15T11:06:04;12.64;80.43
65374;SHT31;52070;53.760;9.678;2023-04-15T11:08:55;12.55;80.62
65374;SHT31;52070;53.760;9.678;2023-04-15T11:12:04;12.74;82.03
65374;SHT31;52070;53.760;9.678;2023-04-15T11:14:32;12.95;81.43
65374;SHT31;52070;53.760;9.678;2023-04-15T11:16:59;13.06;80.08
65374;SHT31;52070;53.760;9.678;2023-04-15T11:19:34;13.46;80.24
65374;SHT31;52070;53.760;9.678;2023-04-15T11:22:06;13.36;78.50
65374;SHT31;52070;53.760;9.678;2023-04-15T11:24:33;13.40;77.81
65374;SHT31;52070;53.760;9.678;2023-04-15T11:27:00;13.40;78.35
65374;SHT31;52070;53.760;9.678;2023-04-15T11:29:28;13.40;78.71
65374;SHT31;52070;53.760;9.678;2023-04-15T11:32:04;13.50;78.89
65374;SHT31;52070;53.760;9.678;2023-04-15T11:34:32;13.70;77.51
65374;SHT31;52070;53.760;9.678;2023-04-15T11:37:03;14.26;76.44
65374;SHT31;52070;53.760;9.678;2023-04-15T11:39:30;14.79;75.00
65374;SHT31;52070;53.760;9.678;2023-04-15T11:41:57;14.62;73.42
65374;SHT31;52070;53.760;9.678;2023-04-15T11:44:24;14.29;72.72
65374;SHT31;52070;53.760;9.678;2023-04-15T11:46:51;14.14;73.94
65374;SHT31;52070;53.760;9.678;2023-04-15T11:49:28;14.10;74.24
65374;SHT31;52070;53.760;9.678;2023-04-15T11:51:56;14.11;74.96
65374;SHT31;52070;53.760;9.678;2023-04-15T11:54:23;13.94;75.33
65374;SHT31;52070;53.760;9.678;2023-04-15T11:56:50;13.88;75.94
65374;SHT31;52070;53.760;9.678;2023-04-15T11:59:19;13.74;75.51
65374;SHT31;52070;53.760;9.678;2023-04-15T12:01:46;13.56;76.29
65374;SHT31;52070;53.760;9.678;2023-04-15T12:04:14;13.26;75.59
65374;SHT31;52070;53.760;9.678;2023-04-15T12:06:44;13.19;76.84
65374;SHT31;52070;53.760;9.678;2023-04-15T12:09:15;13.05;76.49
65374;SHT31;52070;53.760;9.678;2023-04-15T12:11:44;13.08;77.86
65374;SHT31;52070;53.760;9.678;2023-04-15T12:14:17;13.22;76.62
65374;SHT31;52070;53.760;9.678;2023-04-15T12:16:46;13.43;77.03
65374;SHT31;52070;53.760;9.678;2023-04-15T12:19:14;13.59;76.40
65374;SHT31;52070;53.760;9.678;2023-04-15T12:21:44;13.71;75.43
65374;SHT31;52070;53.760;9.678;2023-04-15T12:24:11;13.75;72.84
65374;SHT31;52070;53.760;9.678;2023-04-15T12:26:44;13.73;72.66
65374;SHT31;52070;53.760;9.678;2023-04-15T12:29:14;13.71;72.32
65374;SHT31;52070;53.760;9.678;2023-04-15T12:31:50;13.63;72.05
65374;SHT31;52070;53.760;9.678;2023-04-15T12:34:18;13.60;72.56
65374;SHT31;52070;53.760;9.678;2023-04-15T12:36:51;13.71;72.63
65374;SHT31;52070;53.760;9.678;2023-04-15T12:39:21;13.74;71.36
65374;SHT31;52070;53.760;9.678;2023-04-15T12:41:49;13.93;70.45
65374;SHT31;52070;53.760;9.678;2023-04-15T12:44:16;14.08;70.77
65374;SHT31;52070;53.760;9.678;2023-04-15T12:46:45;14.14;68.92
65374;SHT31;52070;53.760;9.678;2023-04-15T12:49:12;14.15;66.53
65374;SHT31;52070;53.760;9.678;2023-04-15T12:51:40;14.17;67.73
65374;SHT31;52070;53.760;9.678;2023-04-15T12:54:07;14.22;68.06
65374;SHT31;52070;53.760;9.678;2023-04-15T12:56:34;14.24;66.81
65374;SHT31;52070;53.760;9.678;2023-04-15T12:59:02;14.26;66.09
65374;SHT31;52070;53.760;9.678;2023-04-15T13:01:29;14.26;67.25
65374;SHT31;52070;53.760;9.678;2023-04-15T13:03:56;14.31;66.93
65374;SHT31;52070;53.760;9.678;2023-04-15T13:06:23;14.44;67.88
65374;SHT31;52070;53.760;9.678;2023-04-15T13:08:50;14.59;66.36
65374;SHT31;52070;53.760;9.678;2023-04-15T13:11:19;14.71;66.18
65374;SHT31;52070;53.760;9.678;2023-04-15T13:13:46;14.61;65.08
65374;SHT31;52070;53.760;9.678;2023-04-15T13:16:15;14.56;66.97
65374;SHT31;52070;53.760;9.678;2023-04-15T13:18:42;14.44;66.07
65374;SHT31;52070;53.760;9.678;2023-04-15T13:21:11;14.24;67.46
65374;SHT31;52070;53.760;9.678;2023-04-15T13:23:38;14.14;67.01
65374;SHT31;52070;53.760;9.678;2023-04-15T13:26:05;14.07;67.98
65374;SHT31;52070;53.760;9.678;2023-04-15T13:28:32;14.13;67.51
65374;SHT31;52070;53.760;9.678;2023-04-15T13:30:59;14.20;68.91
65374;SHT31;52070;53.760;9.678;2023-04-15T13:33:27;14.32;67.27
65374;SHT31;52070;53.760;9.678;2023-04-15T13:35:55;14.34;65.79
65374;SHT31;52070;53.760;9.678;2023-04-15T13:38:24;14.24;67.23
65374;SHT31;52070;53.760;9.678;2023-04-15T13:40:51;14.25;67.22
65374;SHT31;52070;53.760;9.678;2023-04-15T13:43:18;14.36;67.55
65374;SHT31;52070;53.760;9.678;2023-04-15T13:45:46;14.52;67.36
65374;SHT31;52070;53.760;9.678;2023-04-15T13:48:13;14.54;65.80
65374;SHT31;52070;53.760;9.678;2023-04-15T13:50:41;14.56;66.40
65374;SHT31;52070;53.760;9.678;2023-04-15T13:53:10;14.44;65.89
65374;SHT31;52070;53.760;9.678;2023-04-15T13:55:37;14.38;67.59
65374;SHT31;52070;53.760;9.678;2023-04-15T13:58:06;14.32;65.99
65374;SHT31;52070;53.760;9.678;2023-04-15T14:00:33;14.26;65.94
65374;SHT31;52070;53.760;9.678;2023-04-15T14:03:00;14.29;66.32
65374;SHT31;52070;53.760;9.678;2023-04-15T14:05:27;14.39;65.99
65374;SHT31;52070;53.760;9.678;2023-04-15T14:07:55;14.72;65.97
65374;SHT31;52070;53.760;9.678;2023-04-15T14:10:22;14.93;65.69
65374;SHT31;52070;53.760;9.678;2023-04-15T14:12:49;14.96;64.40
65374;SHT31;52070;53.760;9.678;2023-04-15T14:15:16;14.80;65.14
65374;SHT31;52070;53.760;9.678;2023-04-15T14:17:43;14.71;66.96
65374;SHT31;52070;53.760;9.678;2023-04-15T14:20:10;14.64;64.42
65374;SHT31;52070;53.760;9.678;2023-04-15T14:22:37;14.61;64.78
65374;SHT31;52070;53.760;9.678;2023-04-15T14:25:06;14.69;65.76
65374;SHT31;52070;53.760;9.678;2023-04-15T14:27:33;14.65;66.14
65374;SHT31;52070;53.760;9.678;2023-04-15T14:30:00;14.41;66.21
65374;SHT31;52070;53.760;9.678;2023-04-15T14:32:27;14.36;66.67
65374;SHT31;52070;53.760;9.678;2023-04-15T14:34:54;14.31;66.99
65374;SHT31;52070;53.760;9.678;2023-04-15T14:37:21;14.31;67.89
65374;SHT31;52070;53.760;9.678;2023-04-15T14:39:48;14.35;66.67
65374;SHT31;52070;53.760;9.678;2023-04-15T14:42:16;14.35;67.45
65374;SHT31;52070;53.760;9.678;2023-04-15T14:44:43;14.48;67.18
65374;SHT31;52070;53.760;9.678;2023-04-15T14:47:10;14.51;66.43
65374;SHT31;52070;53.760;9.678;2023-04-15T14:49:37;14.45;65.41
65374;SHT31;52070;53.760;9.678;2023-04-15T14:52:04;14.46;66.11
65374;SHT31;52070;53.760;9.678;2023-04-15T14:54:31;14.51;66.71
65374;SHT31;52070;53.760;9.678;2023-04-15T14:56:58;14.41;66.56
65374;SHT31;52070;53.760;9.678;2023-04-15T14:59:27;14.21;66.69
65374;SHT31;52070;53.760;9.678;2023-04-15T15:01:54;14.01;67.18
65374;SHT31;52070;53.760;9.678;2023-04-15T15:04:21;13.97;67.07
65374;SHT31;52070;53.760;9.678;2023-04-15T15:06:48;14.01;67.30
65374;SHT31;52070;53.760;9.678;2023-04-15T15:09:15;13.88;67.15
65374;SHT31;52070;53.760;9.678;2023-04-15T15:11:44;14.03;67.64
65374;SHT31;52070;53.760;9.678;2023-04-15T15:14:11;14.04;67.09
65374;SHT31;52070;53.760;9.678;2023-04-15T15:16:39;14.01;67.19
65374;SHT31;52070;53.760;9.678;2023-04-15T15:19:06;14.11;67.29
65374;SHT31;52070;53.760;9.678;2023-04-15T15:21:33;14.15;67.81
65374;SHT31;52070;53.760;9.678;2023-04-15T15:24:00;14.17;66.84
65374;SHT31;52070;53.760;9.678;2023-04-15T15:26:27;14.20;68.59
65374;SHT31;52070;53.760;9.678;2023-04-15T15:28:54;14.20;67.05
65374;SHT31;52070;53.760;9.678;2023-04-15T15:31:21;14.04;67.18
65374;SHT31;52070;53.760;9.678;2023-04-15T15:33:49;13.87;67.50
65374;SHT31;52070;53.760;9.678;2023-04-15T15:36:17;13.73;67.94
65374;SHT31;52070;53.760;9.678;2023-04-15T15:38:44;13.70;68.32
65374;SHT31;52070;53.760;9.678;2023-04-15T15:41:12;13.60;68.86
65374;SHT31;52070;53.760;9.678;2023-04-15T15:43:40;13.57;68.80
65374;SHT31;52070;53.760;9.678;2023-04-15T15:46:07;13.42;69.27